Time;durP1;ratioP1;P1;durP2;ratioP2;P2;SDS_P1;SDS_P2;PMS_P1;PMS_P2;Temp;Humidity;BMP_temperature;BMP_pressure;BME280_temperature;BME280_humidity;BME280_pressure;Samples;Min_cycle;Max_cycle;Signal;HPM_P1;HPM_P2
2024/04/12 00:00:21;;;;;;;7.32;5.85;;;14.70;99.90;;;;;;4479005;26;20007;-51
2024/04/12 00:02:26;;;;;;;8.60;5.63;;;14.60;99.90;;;;;;4477871;26;20011;-55
2024/04/12 00:04:27;;;;;;;10.43;6.00;;;14.60;99.90;;;;;;4478410;26;19996;-53
2024/04/12 00:06:30;;;;;;;10.80;5.65;;;14.50;99.90;;;;;;4477689;26;20007;-55
2024/04/12 00:08:34;;;;;;;12.00;5.80;;;14.50;99.90;;;;;;4478188;26;20068;-51
2024/04/12 00:10:37;;;;;;;8.48;5.10;;;14.50;99.90;;;;;;4477182;26;20072;-53
2024/04/12 00:12:39;;;;;;;10.77;5.47;;;14.40;99.90;;;;;;4478813;26;20011;-54
2024/04/12 00:14:43;;;;;;;7.93;5.10;;;14.40;99.90;;;;;;4477236;26;20044;-55
2024/04/12 00:16:50;;;;;;;8.50;5.63;;;14.40;99.90;;;;;;4478265;26;20071;-55
2024/04/12 00:19:07;;;;;;;6.90;5.13;;;14.40;99.90;;;;;;4476991;26;20068;-55
2024/04/12 00:21:08;;;;;;;10.20;5.40;;;14.40;99.90;;;;;;4478299;26;19999;-55
2024/04/12 00:23:12;;;;;;;11.30;5.43;;;14.30;99.90;;;;;;4465890;26;20000;-50
2024/04/12 00:25:13;;;;;;;9.18;5.25;;;14.30;99.90;;;;;;4448579;26;20000;-58
2024/04/12 00:27:15;;;;;;;10.55;6.13;;;14.30;99.90;;;;;;4448150;26;20060;-56
2024/04/12 00:29:36;;;;;;;12.60;5.82;;;14.20;99.90;;;;;;4448403;26;19997;-54
2024/04/12 00:31:42;;;;;;;11.60;5.47;;;14.20;99.90;;;;;;4448002;26;20069;-51
2024/04/12 00:33:43;;;;;;;5.32;4.70;;;14.20;99.90;;;;;;4448938;26;20072;-51
2024/04/12 00:35:49;;;;;;;7.25;5.75;;;14.10;99.90;;;;;;4447849;26;20001;-50
2024/04/12 00:37:53;;;;;;;13.80;5.53;;;14.10;99.90;;;;;;4448161;26;19996;-51
2024/04/12 00:39:54;;;;;;;10.57;6.20;;;14.10;99.90;;;;;;4448035;26;20061;-56
2024/04/12 00:41:59;;;;;;;7.88;5.38;;;14.10;99.90;;;;;;4448211;26;20460;-54
2024/04/12 00:44:03;;;;;;;9.38;5.13;;;14.00;99.90;;;;;;4448327;26;20008;-54
2024/04/12 00:46:04;;;;;;;9.13;5.43;;;14.00;99.90;;;;;;4447419;26;20343;-54
2024/04/12 00:48:07;;;;;;;12.23;5.20;;;14.00;99.90;;;;;;4448452;26;20091;-55
2024/04/12 00:50:09;;;;;;;8.67;5.43;;;14.00;99.90;;;;;;4447910;26;20008;-54
2024/04/12 00:52:12;;;;;;;10.27;5.30;;;13.90;99.90;;;;;;4449042;26;20012;-52
2024/04/12 00:54:15;;;;;;;9.77;5.97;;;13.90;99.90;;;;;;4446995;26;20320;-54
2024/04/12 00:56:17;;;;;;;10.02;5.68;;;13.80;99.90;;;;;;4448979;26;20008;-51
2024/04/12 00:58:18;;;;;;;11.45;6.05;;;13.80;99.90;;;;;;4447189;26;20072;-58
2024/04/12 01:00:20;;;;;;;8.73;5.33;;;13.70;99.90;;;;;;4450595;26;20073;-52
2024/04/12 01:02:22;;;;;;;13.23;5.83;;;13.70;99.90;;;;;;4450016;26;19996;-52
2024/04/12 01:04:23;;;;;;;9.47;5.37;;;13.70;99.90;;;;;;4451385;26;20012;-55
2024/04/12 01:06:31;;;;;;;6.33;5.23;;;13.70;99.90;;;;;;4449927;26;20497;-51
2024/04/12 01:08:32;;;;;;;7.53;5.67;;;13.60;99.90;;;;;;4450111;26;20703;-50
2024/04/12 01:10:36;;;;;;;8.40;5.70;;;13.70;99.90;;;;;;4449986;26;20077;-54
2024/04/12 01:12:43;;;;;;;8.73;5.77;;;13.60;99.90;;;;;;4451130;26;20365;-53
2024/04/12 01:14:45;;;;;;;14.00;6.30;;;13.60;99.90;;;;;;4450228;26;20012;-54
2024/04/12 01:16:46;;;;;;;8.83;5.50;;;13.60;99.90;;;;;;4450501;26;20078;-53
2024/04/12 01:18:49;;;;;;;7.43;5.53;;;13.50;99.90;;;;;;4451010;26;20008;-53
2024/04/12 01:20:51;;;;;;;8.77;6.20;;;13.50;99.90;;;;;;4450579;26;20065;-54
2024/04/12 01:22:57;;;;;;;8.63;5.60;;;13.40;99.90;;;;;;4457608;26;20837;-56
2024/04/12 01:25:00;;;;;;;10.67;6.70;;;13.40;99.90;;;;;;4479297;26;20004;-57
2024/04/12 01:27:06;;;;;;;7.00;5.10;;;13.40;99.90;;;;;;4480735;26;20007;-56
2024/04/12 01:29:09;;;;;;;8.03;5.47;;;13.30;99.90;;;;;;4479238;26;20007;-52
2024/04/12 01:31:17;;;;;;;10.47;5.63;;;13.30;99.90;;;;;;4480845;26;20427;-53
2024/04/12 01:33:20;;;;;;;8.87;5.23;;;13.30;99.90;;;;;;4479561;26;20060;-51
2024/04/12 01:35:21;;;;;;;10.10;5.67;;;13.30;99.90;;;;;;4480437;26;20003;-50
2024/04/12 01:37:23;;;;;;;7.97;5.83;;;13.20;99.90;;;;;;4479074;26;19999;-54
2024/04/12 01:39:28;;;;;;;7.60;6.20;;;13.20;99.90;;;;;;4480547;26;20958;-59
2024/04/12 01:41:33;;;;;;;9.20;5.67;;;13.20;99.90;;;;;;4479632;26;20095;-52
2024/04/12 01:43:38;;;;;;;9.37;5.60;;;13.10;99.90;;;;;;4480363;26;20068;-49
2024/04/12 01:45:39;;;;;;;8.53;5.67;;;13.10;99.90;;;;;;4478889;26;20076;-54
2024/04/12 01:47:46;;;;;;;13.07;5.43;;;13.10;99.90;;;;;;4479967;26;20068;-55
2024/04/12 01:49:48;;;;;;;8.70;5.87;;;13.00;99.90;;;;;;4478709;26;20064;-54
2024/04/12 01:51:49;;;;;;;10.60;6.37;;;13.00;99.90;;;;;;4480430;26;20305;-57
2024/04/12 01:53:54;;;;;;;8.07;5.90;;;13.00;99.90;;;;;;4479240;26;20446;-55
2024/04/12 01:55:58;;;;;;;7.47;5.73;;;12.90;99.90;;;;;;4479455;26;19999;-51
2024/04/12 01:58:00;;;;;;;10.53;6.20;;;12.80;99.90;;;;;;4479242;26;20071;-54
2024/04/12 02:00:02;;;;;;;12.27;6.33;;;12.80;99.90;;;;;;4480388;26;20071;-53
2024/04/12 02:02:04;;;;;;;9.90;6.50;;;12.70;99.90;;;;;;4479777;26;20007;-59
2024/04/12 02:04:07;;;;;;;11.53;6.07;;;12.70;99.90;;;;;;4479018;26;20072;-52
2024/04/12 02:06:09;;;;;;;7.37;5.93;;;12.70;99.90;;;;;;4479515;26;20004;-57
2024/04/12 02:08:16;;;;;;;12.70;6.17;;;12.70;99.90;;;;;;4478812;26;20072;-53
2024/04/12 02:10:22;;;;;;;7.23;5.50;;;12.70;99.90;;;;;;4480235;26;20409;-52
2024/04/12 02:12:26;;;;;;;12.07;6.07;;;12.70;99.90;;;;;;4478093;26;19995;-54
2024/04/12 02:14:28;;;;;;;7.80;5.63;;;12.70;99.90;;;;;;4479829;26;20072;-49
2024/04/12 02:16:31;;;;;;;8.00;5.73;;;12.70;99.90;;;;;;4478261;26;20905;-51
2024/04/12 02:18:33;;;;;;;7.27;5.47;;;12.70;99.90;;;;;;4479430;26;19999;-54
2024/04/12 02:20:34;;;;;;;11.60;6.63;;;12.70;99.90;;;;;;4478507;26;20886;-59
2024/04/12 02:22:37;;;;;;;7.67;5.83;;;12.70;99.90;;;;;;4478908;26;20008;-57
2024/04/12 02:24:40;;;;;;;8.30;5.93;;;12.70;99.90;;;;;;4478840;26;20000;-49
2024/04/12 02:26:42;;;;;;;10.03;6.47;;;12.60;99.90;;;;;;4479632;26;19996;-54
2024/04/12 02:28:43;;;;;;;9.23;6.97;;;12.60;99.90;;;;;;4477556;26;20071;-57
2024/04/12 02:30:54;;;;;;;10.60;5.97;;;12.60;99.90;;;;;;4480369;26;20068;-56
2024/04/12 02:32:57;;;;;;;8.40;5.80;;;12.60;99.90;;;;;;4478737;26;20064;-57
2024/04/12 02:34:58;;;;;;;9.53;5.73;;;12.60;99.90;;;;;;4479615;26;20011;-56
2024/04/12 02:37:01;;;;;;;8.70;6.20;;;12.60;99.90;;;;;;4478516;26;20007;-56
2024/04/12 02:39:06;;;;;;;12.50;5.73;;;12.50;99.90;;;;;;4479137;26;20507;-53
2024/04/12 02:41:14;;;;;;;9.73;5.93;;;12.50;99.90;;;;;;4478786;26;20119;-59
2024/04/12 02:43:16;;;;;;;13.27;6.07;;;12.50;99.90;;;;;;4478607;26;20008;-51
2024/04/12 02:45:17;;;;;;;11.20;6.37;;;12.50;99.90;;;;;;4479169;26;20011;-58
2024/04/12 02:47:19;;;;;;;8.13;5.83;;;12.50;99.90;;;;;;4478304;26;20392;-55
2024/04/12 02:49:21;;;;;;;11.50;6.13;;;12.50;99.90;;;;;;4479001;26;20492;-53
2024/04/12 02:51:22;;;;;;;9.13;5.83;;;12.40;99.90;;;;;;4478021;26;19999;-53
2024/04/12 02:53:24;;;;;;;13.03;6.50;;;12.50;99.90;;;;;;4479785;26;20072;-58
2024/04/12 02:55:30;;;;;;;10.57;5.93;;;12.50;99.90;;;;;;4478495;26;20007;-52
2024/04/12 02:57:32;;;;;;;12.30;6.47;;;12.50;99.90;;;;;;4479562;26;20000;-55
2024/04/12 02:59:34;;;;;;;10.47;6.07;;;12.40;99.90;;;;;;4480155;26;20079;-56
2024/04/12 03:01:36;;;;;;;8.00;5.50;;;12.40;99.90;;;;;;4479743;26;20119;-53
2024/04/12 03:03:45;;;;;;;11.20;6.20;;;12.40;99.90;;;;;;4477795;26;20011;-57
2024/04/12 03:05:48;;;;;;;8.30;6.20;;;12.40;99.90;;;;;;4479001;26;20011;-51
2024/04/12 03:07:52;;;;;;;9.87;5.87;;;12.40;99.90;;;;;;4478170;26;20724;-56
2024/04/12 03:09:53;;;;;;;7.60;5.80;;;12.40;99.90;;;;;;4479530;26;20068;-58
2024/04/12 03:11:54;;;;;;;8.60;5.77;;;12.40;99.90;;;;;;4477271;26;20107;-55
2024/04/12 03:14:03;;;;;;;8.93;6.20;;;12.40;99.90;;;;;;4478674;26;20064;-52
2024/04/12 03:16:14;;;;;;;6.73;5.73;;;12.40;99.90;;;;;;4477851;26;20007;-56
2024/04/12 03:18:15;;;;;;;11.95;7.75;;;12.40;99.90;;;;;;4478788;26;20071;-55
2024/04/12 03:20:18;;;;;;;12.37;6.67;;;12.30;99.90;;;;;;4478065;26;20008;-56
2024/04/12 03:22:20;;;;;;;7.93;5.30;;;12.30;99.90;;;;;;4478105;26;20477;-56
2024/04/12 03:24:22;;;;;;;9.10;6.10;;;12.30;99.90;;;;;;4449322;26;20001;-54
2024/04/12 03:26:24;;;;;;;7.33;5.10;;;12.30;99.90;;;;;;4449208;26;20065;-53
2024/04/12 03:28:25;;;;;;;9.13;5.63;;;12.30;99.90;;;;;;4448932;26;20448;-55
2024/04/12 03:30:27;;;;;;;7.87;5.23;;;12.30;99.90;;;;;;4448521;26;20089;-53
2024/04/12 03:32:32;;;;;;;9.63;5.00;;;12.40;99.90;;;;;;4449497;26;20072;-55
2024/04/12 03:34:36;;;;;;;10.33;5.33;;;12.40;99.90;;;;;;4448352;26;20409;-55
2024/04/12 03:38:45;;;;;;;13.23;6.10;;;12.40;99.90;;;;;;4448013;26;20069;-56
2024/04/12 03:40:46;;;;;;;7.67;5.70;;;12.40;99.90;;;;;;4449515;26;20008;-55
2024/04/12 03:42:48;;;;;;;7.23;5.07;;;12.40;99.90;;;;;;4448330;26;20080;-56
2024/04/12 03:44:49;;;;;;;8.43;5.30;;;12.40;99.90;;;;;;4449628;26;20064;-52
2024/04/12 03:46:50;;;;;;;7.93;5.30;;;12.40;99.90;;;;;;4448357;26;20008;-53
2024/04/12 03:48:53;;;;;;;9.57;5.87;;;12.40;99.90;;;;;;4448652;26;19996;-58
2024/04/12 03:51:00;;;;;;;6.53;5.20;;;12.40;99.90;;;;;;4447981;26;20164;-55
2024/04/12 03:53:14;;;;;;;7.97;5.67;;;12.30;99.90;;;;;;4448857;26;20073;-55
2024/04/12 03:55:16;;;;;;;10.80;6.07;;;12.30;99.90;;;;;;4447812;26;20004;-56
2024/04/12 03:57:18;;;;;;;8.50;5.40;;;12.30;99.90;;;;;;4450080;26;20542;-54
2024/04/12 03:59:21;;;;;;;10.80;5.50;;;12.30;99.90;;;;;;4448558;26;20008;-55
2024/04/12 04:01:22;;;;;;;8.80;6.20;;;12.40;99.90;;;;;;4449052;26;20081;-56
2024/04/12 04:03:33;;;;;;;10.47;6.17;;;12.50;99.90;;;;;;4448566;26;20012;-56
2024/04/12 04:05:34;;;;;;;12.95;6.13;;;12.60;99.90;;;;;;4448113;26;20100;-56
2024/04/12 04:07:38;;;;;;;10.77;6.00;;;12.80;99.90;;;;;;4447762;26;20065;-58
2024/04/12 04:09:39;;;;;;;13.43;6.77;;;13.00;99.90;;;;;;4447413;26;20077;-55
2024/04/12 04:11:42;;;;;;;7.03;5.30;;;13.10;99.90;;;;;;4448171;26;20081;-52
2024/04/12 04:13:46;;;;;;;5.93;4.73;;;13.20;99.90;;;;;;4447957;26;20000;-58
2024/04/12 04:15:51;;;;;;;8.10;5.33;;;13.40;99.90;;;;;;4459342;26;20007;-58
2024/04/12 04:17:53;;;;;;;9.23;5.43;;;13.60;99.90;;;;;;4476806;26;20060;-55
2024/04/12 04:19:55;;;;;;;9.83;6.13;;;13.70;99.90;;;;;;4478284;26;20000;-55
2024/04/12 04:22:01;;;;;;;8.23;5.83;;;14.00;99.90;;;;;;4476473;26;20011;-59
2024/04/12 04:24:10;;;;;;;7.43;5.77;;;14.20;99.90;;;;;;4476775;26;20011;-57
2024/04/12 04:26:11;;;;;;;11.43;5.27;;;14.30;99.90;;;;;;4476603;26;20425;-58
2024/04/12 04:28:15;;;;;;;8.63;4.57;;;14.60;99.90;;;;;;4477737;26;20037;-55
2024/04/12 04:30:18;;;;;;;10.43;5.47;;;14.90;99.90;;;;;;4477092;26;20007;-56
2024/04/12 04:32:22;;;;;;;7.07;4.82;;;15.30;99.90;;;;;;4477666;26;20003;-54
2024/04/12 04:34:25;;;;;;;9.40;5.30;;;15.40;99.90;;;;;;4475365;26;20068;-58
2024/04/12 04:36:26;;;;;;;12.38;4.78;;;15.80;99.90;;;;;;4477744;26;20068;-56
2024/04/12 04:38:27;;;;;;;8.48;5.05;;;16.00;99.90;;;;;;4475998;26;19995;-49
2024/04/12 04:40:29;;;;;;;8.40;5.18;;;16.10;99.90;;;;;;4477392;26;19999;-57
2024/04/12 04:42:30;;;;;;;7.57;5.07;;;16.20;99.90;;;;;;4476119;26;20075;-52
2024/04/12 04:44:31;;;;;;;10.27;5.25;;;16.60;99.90;;;;;;4476081;26;19999;-53
2024/04/12 04:46:33;;;;;;;16.52;7.70;;;16.80;99.90;;;;;;4477102;26;20432;-57
2024/04/12 04:48:35;;;;;;;10.38;5.47;;;17.20;99.90;;;;;;4476285;26;20068;-57
2024/04/12 04:50:36;;;;;;;9.18;5.25;;;17.60;99.90;;;;;;4477518;26;20000;-54
2024/04/12 04:52:38;;;;;;;7.47;4.88;;;17.70;99.90;;;;;;4475934;26;20079;-55
2024/04/12 04:54:39;;;;;;;13.88;5.95;;;17.90;99.90;;;;;;4477773;26;20411;-55
2024/04/12 04:56:44;;;;;;;13.07;5.75;;;18.10;99.90;;;;;;4476110;26;20012;-57
2024/04/12 04:58:45;;;;;;;8.98;5.22;;;18.30;99.90;;;;;;4477540;26;20928;-56
2024/04/12 05:00:49;;;;;;;10.88;4.85;;;18.30;99.90;;;;;;4476812;26;20011;-57
2024/04/12 05:02:52;;;;;;;12.18;5.20;;;18.40;99.90;;;;;;4478143;26;20087;-56
2024/04/12 05:04:55;;;;;;;20.17;10.30;;;18.60;99.90;;;;;;4476493;26;19995;-55
2024/04/12 05:06:58;;;;;;;10.02;5.43;;;19.00;99.90;;;;;;4477447;26;20068;-53
2024/04/12 05:09:03;;;;;;;10.05;4.10;;;19.40;99.90;;;;;;4476009;26;20353;-55
2024/04/12 05:11:07;;;;;;;11.68;5.03;;;19.80;99.90;;;;;;4477358;26;20423;-56
2024/04/12 05:13:11;;;;;;;6.18;4.00;;;20.10;99.90;;;;;;4476867;26;20000;-57
2024/04/12 05:15:55;;;;;;;7.43;4.97;;;20.70;99.90;;;;;;4476610;26;20093;-57
2024/04/12 05:17:39;;;;;;;9.10;4.55;;;20.70;99.90;;;;;;4471125;26;19996;-57
2024/04/12 05:19:43;;;;;;;7.07;4.07;;;21.00;99.90;;;;;;4478096;26;20072;-57
2024/04/12 05:21:45;;;;;;;8.32;4.28;;;21.70;99.90;;;;;;4475876;26;20393;-59
2024/04/12 05:23:51;;;;;;;6.53;4.00;;;22.30;99.90;;;;;;4476708;26;20003;-56
2024/04/12 05:25:54;;;;;;;6.55;3.90;;;22.80;99.90;;;;;;4476165;26;20000;-56
2024/04/12 05:27:55;;;;;;;9.15;3.50;;;22.60;99.30;;;;;;4468542;26;20101;-57
2024/04/12 05:29:56;;;;;;;5.72;3.80;;;22.90;98.80;;;;;;4463405;26;20015;-54
2024/04/12 05:31:58;;;;;;;5.97;3.40;;;23.00;98.40;;;;;;4466454;26;20397;-55
2024/04/12 05:34:01;;;;;;;13.85;4.25;;;23.30;97.80;;;;;;4468787;26;20084;-58
2024/04/12 05:36:02;;;;;;;7.10;3.88;;;23.60;96.90;;;;;;4464828;26;20088;-58
2024/04/12 05:38:07;;;;;;;8.07;4.28;;;23.60;96.60;;;;;;4468434;26;20019;-58
2024/04/12 05:40:12;;;;;;;6.20;3.85;;;23.90;96.20;;;;;;4463308;26;20081;-58
2024/04/12 05:42:15;;;;;;;10.70;4.18;;;24.00;95.60;;;;;;4467114;26;20052;-55
2024/04/12 05:44:18;;;;;;;7.25;4.28;;;24.30;95.30;;;;;;4469826;26;20061;-57
2024/04/12 05:46:22;;;;;;;7.40;4.75;;;24.60;94.70;;;;;;4471532;26;21799;-55
2024/04/12 05:48:25;;;;;;;12.02;4.10;;;24.40;94.20;;;;;;4471937;26;20100;-57
2024/04/12 05:50:26;;;;;;;8.20;4.45;;;24.50;94.10;;;;;;4472159;26;20503;-55
2024/04/12 05:52:29;;;;;;;8.48;4.95;;;24.70;93.70;;;;;;4471280;26;20076;-57
2024/04/12 05:54:39;;;;;;;8.00;4.20;;;24.60;93.60;;;;;;4471997;26;20015;-57
2024/04/12 05:56:43;;;;;;;4.15;3.75;;;24.80;93.20;;;;;;4468183;26;19995;-55
2024/04/12 05:58:45;;;;;;;11.43;4.10;;;25.20;92.80;;;;;;4472392;26;20515;-56
2024/04/12 06:00:50;;;;;;;6.50;3.85;;;25.10;92.40;;;;;;4468508;26;20103;-56
2024/04/12 06:02:51;;;;;;;8.77;4.45;;;25.40;92.00;;;;;;4472275;26;21067;-56
2024/04/12 06:04:54;;;;;;;6.93;3.55;;;25.40;91.60;;;;;;4472159;26;20015;-56
2024/04/12 06:07:01;;;;;;;9.93;4.15;;;25.40;91.50;;;;;;4472789;26;20011;-56
2024/04/12 06:09:05;;;;;;;8.27;4.53;;;25.40;91.30;;;;;;4472643;26;20397;-55
2024/04/12 06:11:09;;;;;;;8.23;3.63;;;25.30;91.00;;;;;;4473359;26;20452;-59
2024/04/12 06:13:11;;;;;;;9.27;4.43;;;24.90;91.10;;;;;;4470181;26;20015;-52
2024/04/12 06:15:15;;;;;;;7.65;3.60;;;24.90;91.10;;;;;;4469764;26;20075;-56
2024/04/12 06:17:17;;;;;;;5.55;4.15;;;24.80;91.10;;;;;;4472441;26;20140;-52
2024/04/12 06:19:19;;;;;;;8.95;3.80;;;24.50;91.20;;;;;;4469007;26;20020;-55
2024/04/12 06:21:20;;;;;;;9.55;3.58;;;24.70;91.20;;;;;;4472349;26;20023;-57
2024/04/12 06:23:22;;;;;;;9.65;3.20;;;24.50;91.10;;;;;;4469644;26;20120;-57
2024/04/12 06:25:25;;;;;;;9.60;4.05;;;24.90;91.00;;;;;;4467804;26;20011;-58
2024/04/12 06:27:33;;;;;;;9.07;4.13;;;24.80;90.70;;;;;;4469238;26;20404;-56
2024/04/12 06:29:34;;;;;;;8.05;3.80;;;24.90;90.70;;;;;;4465829;26;20011;-57
2024/04/12 06:31:35;;;;;;;8.50;3.85;;;24.80;90.70;;;;;;4468622;26;20080;-56
2024/04/12 06:33:39;;;;;;;7.20;3.70;;;25.10;90.50;;;;;;4467161;26;20156;-55
2024/04/12 06:35:44;;;;;;;10.23;3.28;;;25.60;90.30;;;;;;4470653;26;20020;-53
2024/04/12 06:37:46;;;;;;;9.15;3.10;;;25.80;89.90;;;;;;4472893;26;20007;-56
2024/04/12 06:39:55;;;;;;;9.15;3.05;;;25.70;89.30;;;;;;4475024;26;20064;-56
2024/04/12 06:42:03;;;;;;;5.75;3.22;;;25.70;89.20;;;;;;4478424;26;20017;-56
2024/04/12 06:44:05;;;;;;;5.78;3.55;;;26.20;88.50;;;;;;4477183;26;20769;-56
2024/04/12 06:46:08;;;;;;;12.50;4.05;;;26.40;87.80;;;;;;4476325;26;20008;-56
2024/04/12 06:48:17;;;;;;;13.65;4.05;;;25.90;87.30;;;;;;4477306;26;20091;-54
2024/04/12 06:50:18;;;;;;;6.65;3.38;;;25.50;88.10;;;;;;4478520;26;20003;-55
2024/04/12 06:52:23;;;;;;;8.52;3.40;;;25.60;88.30;;;;;;4478067;26;20053;-55
2024/04/12 06:54:24;;;;;;;9.18;3.67;;;25.90;88.20;;;;;;4477117;26;20776;-54
2024/04/12 06:56:25;;;;;;;6.75;3.30;;;26.20;87.60;;;;;;4479221;26;20122;-54
2024/04/12 06:58:27;;;;;;;6.35;3.75;;;26.50;87.00;;;;;;4479038;26;20362;-57
2024/04/12 07:00:29;;;;;;;6.93;3.58;;;26.80;86.40;;;;;;4479906;26;20011;-57
2024/04/12 07:02:30;;;;;;;10.15;3.63;;;26.90;86.00;;;;;;4478699;26;20007;-53
2024/04/12 07:04:32;;;;;;;7.32;3.15;;;26.90;86.10;;;;;;4445936;26;20085;-57
2024/04/12 07:06:33;;;;;;;5.50;3.50;;;26.80;85.20;;;;;;4469194;26;20092;-56
2024/04/12 07:08:34;;;;;;;10.25;3.50;;;26.70;85.50;;;;;;4473926;26;20011;-58
2024/04/12 07:10:36;;;;;;;13.90;3.45;;;26.70;85.30;;;;;;4470778;26;20053;-54
2024/04/12 07:12:38;;;;;;;12.30;3.65;;;27.00;84.90;;;;;;4466482;26;20008;-59
2024/04/12 07:14:41;;;;;;;5.40;3.50;;;27.10;84.50;;;;;;4480782;26;20542;-56
2024/04/12 07:16:42;;;;;;;3.85;3.22;;;26.10;84.00;;;;;;4479801;26;20115;-54
2024/04/12 07:18:44;;;;;;;8.65;2.60;;;24.80;85.20;;;;;;4478344;26;20049;-56
2024/04/12 07:20:45;;;;;;;13.45;3.05;;;24.60;86.90;;;;;;4479575;26;20336;-58
2024/04/12 07:22:49;;;;;;;9.35;2.92;;;24.90;87.10;;;;;;4469757;26;20468;-58
2024/04/12 07:24:50;;;;;;;4.72;2.92;;;25.30;86.60;;;;;;4449681;26;20020;-60
2024/04/12 07:26:55;;;;;;;6.47;2.83;;;25.60;85.90;;;;;;4452877;26;20069;-58
2024/04/12 07:29:01;;;;;;;7.53;2.40;;;25.90;85.40;;;;;;4478341;26;20873;-57
2024/04/12 07:31:05;;;;;;;5.18;2.95;;;25.90;84.60;;;;;;4478687;26;20011;-54
2024/04/12 07:33:06;;;;;;;5.35;2.70;;;25.90;85.00;;;;;;4459919;26;20007;-56
2024/04/12 07:35:24;;;;;;;3.40;2.35;;;26.10;84.90;;;;;;4478555;26;20075;-57
2024/04/12 07:37:32;;;;;;;7.40;2.70;;;26.00;84.80;;;;;;4478584;26;20076;-54
2024/04/12 07:39:33;;;;;;;7.25;2.72;;;26.10;84.60;;;;;;4478726;26;20011;-56
2024/04/12 07:41:45;;;;;;;8.27;2.92;;;26.40;84.30;;;;;;4477522;26;20903;-58
2024/04/12 07:43:46;;;;;;;6.50;2.83;;;26.60;83.20;;;;;;4479130;26;20016;-54
2024/04/12 07:45:48;;;;;;;13.23;3.97;;;26.20;83.70;;;;;;4477334;26;20072;-56
2024/04/12 07:47:54;;;;;;;4.18;2.20;;;25.50;84.20;;;;;;4477975;26;20401;-57
2024/04/12 07:49:55;;;;;;;9.95;2.50;;;24.80;85.00;;;;;;4477568;26;20007;-56
2024/04/12 07:51:58;;;;;;;11.23;2.80;;;24.50;86.10;;;;;;4480028;26;20045;-56
2024/04/12 07:54:03;;;;;;;7.20;3.00;;;24.20;86.50;;;;;;4476873;26;20397;-56
2024/04/12 07:56:08;;;;;;;9.65;3.67;;;24.10;86.80;;;;;;4478968;26;20011;-52
2024/04/12 07:58:09;;;;;;;6.70;3.25;;;24.20;87.20;;;;;;4477814;26;20574;-58
2024/04/12 08:00:15;;;;;;;9.23;3.35;;;24.20;87.00;;;;;;4478476;26;20003;-54
2024/04/12 08:02:17;;;;;;;7.63;3.25;;;24.40;86.60;;;;;;4477804;26;20459;-58
2024/04/12 08:04:25;;;;;;;8.63;2.88;;;24.20;86.20;;;;;;4478210;26;20003;-56
2024/04/12 08:08:47;;;;;;;10.27;3.60;;;24.00;86.40;;;;;;4477486;26;20071;-56
2024/04/12 08:10:56;;;;;;;12.90;3.92;;;24.10;86.70;;;;;;4476624;26;19999;-54
2024/04/12 08:12:58;;;;;;;9.37;2.90;;;23.80;87.20;;;;;;4477717;26;20057;-52
2024/04/12 08:15:06;;;;;;;9.27;2.75;;;23.60;87.70;;;;;;4476428;26;20075;-51
2024/04/12 08:17:14;;;;;;;8.23;3.00;;;23.40;88.00;;;;;;4477686;26;20000;-54
2024/04/12 08:19:21;;;;;;;6.72;3.13;;;23.20;88.60;;;;;;4476842;26;20351;-55
2024/04/12 08:21:28;;;;;;;6.40;3.10;;;23.40;88.50;;;;;;4477896;26;20011;-53
2024/04/12 08:23:29;;;;;;;10.27;3.22;;;23.20;88.80;;;;;;4475597;26;20076;-55
2024/04/12 08:25:36;;;;;;;9.98;2.83;;;23.10;89.50;;;;;;4476727;26;20071;-55
2024/04/12 08:27:41;;;;;;;11.23;3.75;;;23.10;90.00;;;;;;4477144;26;20088;-56
2024/04/12 08:29:42;;;;;;;4.53;2.47;;;23.10;90.10;;;;;;4476885;26;20008;-58
2024/04/12 08:31:47;;;;;;;5.65;3.05;;;23.00;90.10;;;;;;4478091;26;20004;-54
2024/04/12 08:33:49;;;;;;;7.00;2.72;;;23.10;90.30;;;;;;4477148;26;20011;-56
2024/04/12 08:35:55;;;;;;;10.90;3.47;;;23.50;90.30;;;;;;4476908;26;21016;-56
2024/04/12 08:37:57;;;;;;;14.35;3.75;;;23.80;90.00;;;;;;4476884;26;20000;-57
2024/04/12 08:40:08;;;;;;;8.93;3.03;;;23.90;89.80;;;;;;4477425;26;20011;-56
2024/04/12 08:42:16;;;;;;;5.35;3.20;;;23.30;90.00;;;;;;4473729;26;20011;-56
2024/04/12 08:44:23;;;;;;;11.77;3.30;;;22.80;90.50;;;;;;4469203;26;20498;-57
2024/04/12 08:46:33;;;;;;;11.00;3.55;;;22.60;90.80;;;;;;4477146;26;19999;-56
2024/04/12 08:48:41;;;;;;;9.20;2.70;;;22.40;91.20;;;;;;4477631;26;20023;-55
2024/04/12 08:50:48;;;;;;;5.93;2.75;;;22.70;91.10;;;;;;4476610;26;20071;-56
2024/04/12 08:52:52;;;;;;;12.48;2.90;;;23.30;90.90;;;;;;4477507;26;20015;-57
2024/04/12 08:54:54;;;;;;;6.75;2.92;;;23.50;90.50;;;;;;4476103;26;20012;-57
2024/04/12 08:56:56;;;;;;;8.30;3.10;;;23.50;90.60;;;;;;4477804;26;20836;-53
2024/04/12 08:59:08;;;;;;;8.60;2.80;;;23.20;90.60;;;;;;4470569;26;20429;-57
2024/04/12 09:01:09;;;;;;;6.18;2.50;;;23.20;90.90;;;;;;4478114;26;20095;-55
2024/04/12 09:03:23;;;;;;;8.45;2.58;;;23.40;90.60;;;;;;4476539;26;20000;-58
2024/04/12 09:05:26;;;;;;;10.13;2.75;;;23.60;90.40;;;;;;4477810;26;20012;-52
2024/04/12 09:07:27;;;;;;;12.82;4.05;;;23.60;90.20;;;;;;4476514;26;20072;-58
2024/04/12 09:09:29;;;;;;;8.50;2.72;;;23.50;90.20;;;;;;4477686;26;20048;-56
2024/04/12 09:11:31;;;;;;;10.02;3.60;;;23.40;90.20;;;;;;4476856;26;20279;-59
2024/04/12 09:13:36;;;;;;;6.97;3.00;;;23.20;90.40;;;;;;4477753;26;20000;-55
2024/04/12 09:15:45;;;;;;;7.93;2.50;;;23.10;90.30;;;;;;4476649;26;20492;-59
2024/04/12 09:17:47;;;;;;;16.90;3.70;;;23.40;90.50;;;;;;4477017;26;20099;-58
2024/04/12 09:19:50;;;;;;;10.30;2.60;;;23.30;90.40;;;;;;4476621;26;20420;-55
2024/04/12 09:21:58;;;;;;;11.40;2.83;;;23.20;90.60;;;;;;4480587;26;20012;-57
2024/04/12 09:24:09;;;;;;;5.10;2.47;;;23.10;90.60;;;;;;4480038;26;20079;-56
2024/04/12 09:26:22;;;;;;;3.17;2.30;;;23.10;90.50;;;;;;4480076;26;20080;-54
2024/04/12 09:28:30;;;;;;;6.07;2.15;;;23.00;90.60;;;;;;4479290;26;20011;-59
2024/04/12 09:32:53;;;;;;;8.38;3.28;;;23.30;90.60;;;;;;4479023;26;20068;-57
2024/04/12 09:34:55;;;;;;;8.57;2.45;;;23.40;90.90;;;;;;4479485;26;20011;-57
2024/04/12 09:37:04;;;;;;;2.63;2.35;;;23.60;90.70;;;;;;4477835;26;20067;-55
2024/04/12 09:39:15;;;;;;;12.18;4.18;;;23.50;90.40;;;;;;4479951;26;20011;-54
2024/04/12 09:41:29;;;;;;;14.25;3.90;;;23.50;90.70;;;;;;4479128;26;20019;-52
2024/04/12 09:43:36;;;;;;;13.57;3.90;;;23.30;90.80;;;;;;4479697;26;20131;-55
2024/04/12 09:45:57;;;;;;;9.18;3.03;;;23.30;90.90;;;;;;4478321;26;20003;-57
2024/04/12 10:37:51;;;;;;;7.25;2.88;;;23.30;91.10;;;;;;4476629;26;20075;-55
2024/04/12 10:39:55;;;;;;;3.75;2.35;;;23.50;90.90;;;;;;4461679;26;20092;-59
2024/04/12 10:42:00;;;;;;;5.13;2.33;;;23.70;90.50;;;;;;4448523;26;20004;-55
2024/04/12 10:44:03;;;;;;;7.82;2.53;;;23.80;90.40;;;;;;4454378;26;20011;-56
2024/04/12 10:46:05;;;;;;;8.40;2.83;;;24.00;90.40;;;;;;4476795;26;20076;-51
2024/04/12 10:48:06;;;;;;;4.20;2.35;;;23.90;90.10;;;;;;4478319;26;20324;-55
2024/04/12 10:50:10;;;;;;;7.03;2.30;;;23.80;90.10;;;;;;4476270;26;20444;-55
2024/04/12 10:52:14;;;;;;;5.75;2.33;;;23.80;90.00;;;;;;4476331;26;20079;-52
2024/04/12 10:54:18;;;;;;;6.13;2.72;;;23.80;90.00;;;;;;4458004;26;20004;-56
2024/04/12 10:56:20;;;;;;;3.95;2.33;;;23.90;90.00;;;;;;4473436;26;20447;-56
2024/04/12 10:58:27;;;;;;;1.70;1.60;;;24.00;89.80;;;;;;4448212;26;20085;-56
2024/04/12 11:00:29;;;;;;;5.75;1.95;;;24.10;89.40;;;;;;4473923;26;20012;-57
2024/04/12 11:02:33;;;;;;;6.60;2.38;;;24.00;88.60;;;;;;4479303;26;20328;-53
2024/04/12 11:05:05;;;;;;;5.18;2.33;;;24.00;88.80;;;;;;4477523;26;20053;-56
2024/04/12 11:06:56;;;;;;;3.22;2.08;;;24.10;88.70;;;;;;4478453;26;20000;-54
2024/04/12 11:09:05;;;;;;;8.80;2.75;;;24.00;88.90;;;;;;4449556;26;20460;-57
2024/04/12 11:11:15;;;;;;;6.20;2.10;;;24.10;89.00;;;;;;4478822;26;20011;-56
2024/04/12 11:13:28;;;;;;;5.20;2.45;;;24.20;88.70;;;;;;4478246;26;20464;-59
2024/04/12 11:31:47;;;;;;;5.25;2.40;;;23.90;88.00;;;;;;4478880;26;20076;-60
2024/04/12 11:33:52;;;;;;;12.23;2.45;;;24.00;87.60;;;;;;4477694;26;20520;-55
2024/04/12 11:35:54;;;;;;;7.20;2.40;;;24.00;87.50;;;;;;4478549;26;20516;-56
2024/04/12 11:37:56;;;;;;;6.72;2.60;;;23.90;87.30;;;;;;4478085;26;20421;-52
2024/04/12 11:39:57;;;;;;;6.05;2.35;;;23.90;87.40;;;;;;4475156;26;20076;-55
2024/04/12 11:42:00;;;;;;;5.50;2.47;;;23.90;87.50;;;;;;4447879;26;20012;-55
2024/04/12 11:44:05;;;;;;;10.35;3.38;;;23.90;87.40;;;;;;4447202;26;20077;-57
2024/04/12 11:46:07;;;;;;;13.32;2.90;;;23.60;87.60;;;;;;4449108;26;20011;-57
2024/04/12 11:48:14;;;;;;;17.90;3.85;;;23.40;87.80;;;;;;4448925;26;20016;-53
2024/04/12 11:50:15;;;;;;;7.40;2.45;;;23.20;88.80;;;;;;4465888;26;20488;-58
2024/04/12 11:52:17;;;;;;;14.13;3.05;;;23.20;88.30;;;;;;4477503;26;20072;-56
2024/04/12 11:54:18;;;;;;;11.50;3.70;;;23.30;88.40;;;;;;4478347;26;20012;-57